Time;durP1;ratioP1;P1;durP2;ratioP2;P2;SDS_P1;SDS_P2;PMS_P1;PMS_P2;Temp;Humidity;BMP_temperature;BMP_pressure;BME280_temperature;BME280_humidity;BME280_pressure;Samples;Min_cycle;Max_cycle;Signal;HPM_P1;HPM_P2
2024/01/25 00:01:08;;;;;;;0.63;0.63;;;0.30;99.90;;;;;;5030358;28;20197;-73
2024/01/25 00:03:34;;;;;;;0.63;0.63;;;0.40;99.90;;;;;;5030653;28;20194;-75
2024/01/25 00:06:00;;;;;;;0.60;0.60;;;0.50;99.90;;;;;;5030455;28;20248;-74
2024/01/25 00:08:25;;;;;;;0.70;0.70;;;0.40;99.90;;;;;;5030505;28;20224;-73
2024/01/25 00:11:11;;;;;;;0.73;0.73;;;0.50;99.90;;;;;;5030597;28;20209;-73
2024/01/25 00:13:38;;;;;;;0.60;0.60;;;0.50;99.90;;;;;;5030702;28;20212;-74
2024/01/25 00:18:55;;;;;;;0.70;0.70;;;0.50;99.90;;;;;;5035411;28;20557;-74
2024/01/25 00:21:24;;;;;;;0.60;0.60;;;0.50;99.90;;;;;;5034589;28;20678;-73
2024/01/25 00:24:03;;;;;;;0.55;0.55;;;0.50;99.90;;;;;;5034857;28;20264;-74
2024/01/25 00:26:32;;;;;;;0.70;0.70;;;0.50;99.90;;;;;;5034386;28;20267;-73
2024/01/25 00:28:57;;;;;;;0.70;0.70;;;0.40;99.90;;;;;;5034445;28;20198;-73
2024/01/25 00:31:23;;;;;;;0.60;0.60;;;0.30;99.90;;;;;;5016637;28;20237;-74
2024/01/25 00:33:51;;;;;;;0.70;0.70;;;0.30;99.90;;;;;;5034681;28;20194;-73
2024/01/25 00:36:17;;;;;;;0.70;0.70;;;0.30;99.90;;;;;;5034297;28;20708;-73
2024/01/25 00:39:13;;;;;;;0.70;0.70;;;0.20;99.90;;;;;;5034703;28;20277;-73
2024/01/25 00:41:40;;;;;;;0.70;0.70;;;0.10;99.90;;;;;;5034234;28;20244;-73
2024/01/25 00:44:06;;;;;;;0.70;0.70;;;0.20;99.90;;;;;;5034514;28;20197;-73
2024/01/25 00:46:31;;;;;;;0.70;0.70;;;0.20;99.90;;;;;;5033842;28;20666;-74
2024/01/25 00:48:57;;;;;;;1.88;1.77;;;0.20;99.90;;;;;;5034215;28;20563;-73
2024/01/25 00:51:23;;;;;;;0.70;0.70;;;0.20;99.90;;;;;;5034139;28;20199;-73
2024/01/25 00:53:49;;;;;;;0.70;0.70;;;0.20;99.90;;;;;;5033901;28;20602;-74
2024/01/25 00:56:15;;;;;;;0.70;0.70;;;0.20;99.90;;;;;;5015803;28;20206;-73
2024/01/25 00:58:41;;;;;;;0.63;0.63;;;0.30;99.90;;;;;;5033807;28;20293;-73
2024/01/25 01:01:07;;;;;;;0.60;0.60;;;0.30;99.90;;;;;;5033697;28;20202;-72
2024/01/25 01:03:33;;;;;;;0.60;0.60;;;0.30;99.90;;;;;;5033801;28;20213;-73
2024/01/25 01:05:59;;;;;;;0.70;0.70;;;0.30;99.90;;;;;;5033681;28;20190;-72
2024/01/25 01:08:26;;;;;;;0.70;0.70;;;0.30;99.90;;;;;;5033548;28;20201;-72
2024/01/25 01:10:51;;;;;;;0.68;0.68;;;0.30;99.90;;;;;;5033637;28;20456;-73
2024/01/25 01:13:17;;;;;;;0.60;0.60;;;0.20;99.90;;;;;;5033465;28;20244;-73
2024/01/25 01:15:42;;;;;;;0.70;0.70;;;0.20;99.90;;;;;;5033484;28;20666;-73
2024/01/25 01:18:08;;;;;;;0.70;0.70;;;0.10;99.90;;;;;;5033580;28;20190;-73
2024/01/25 01:20:34;;;;;;;0.60;0.60;;;0.10;99.90;;;;;;5033584;28;20555;-73
2024/01/25 01:22:59;;;;;;;0.68;0.68;;;0.10;99.90;;;;;;5033619;28;20195;-73
2024/01/25 01:25:25;;;;;;;0.60;0.60;;;0.10;99.90;;;;;;5033707;28;20207;-73
2024/01/25 01:27:50;;;;;;;0.70;0.70;;;0.10;99.90;;;;;;5032521;28;20688;-73
2024/01/25 01:30:16;;;;;;;0.70;0.70;;;0.10;99.90;;;;;;5033264;28;20278;-73
2024/01/25 01:32:42;;;;;;;0.60;0.60;;;0.20;99.90;;;;;;5033199;28;20225;-72
2024/01/25 01:35:08;;;;;;;0.70;0.70;;;0.10;99.90;;;;;;5033201;28;20209;-72
2024/01/25 01:37:33;;;;;;;0.70;0.70;;;0.20;99.90;;;;;;5032981;28;20186;-73
2024/01/25 01:39:59;;;;;;;0.73;0.73;;;0.30;99.90;;;;;;5033161;28;20236;-72
2024/01/25 01:42:26;;;;;;;0.70;0.70;;;0.40;99.90;;;;;;5032971;28;20279;-73
2024/01/25 01:44:52;;;;;;;0.68;0.68;;;0.40;99.90;;;;;;5033125;28;20198;-73
2024/01/25 01:47:25;;;;;;;0.52;0.52;;;0.40;99.90;;;;;;5015809;28;20194;-72
2024/01/25 01:49:50;;;;;;;0.80;0.80;;;0.40;99.90;;;;;;5015158;28;20279;-73
2024/01/25 01:52:17;;;;;;;0.60;0.60;;;0.40;99.90;;;;;;5032920;28;20913;-70
2024/01/25 01:54:43;;;;;;;0.70;0.70;;;0.50;99.90;;;;;;5014830;28;20650;-70
2024/01/25 01:57:09;;;;;;;0.70;0.70;;;0.60;99.90;;;;;;5032876;28;20182;-71
2024/01/25 01:59:35;;;;;;;0.60;0.60;;;0.70;99.90;;;;;;5032566;28;20186;-70
2024/01/25 02:02:01;;;;;;;0.73;0.73;;;0.70;99.90;;;;;;5032403;28;20186;-71
2024/01/25 02:04:26;;;;;;;0.70;0.70;;;0.80;99.90;;;;;;5014483;28;20201;-70
2024/01/25 02:06:52;;;;;;;0.70;0.70;;;0.80;99.90;;;;;;5014751;28;20304;-70
2024/01/25 02:09:17;;;;;;;0.70;0.70;;;0.90;99.90;;;;;;5032470;28;20221;-70
2024/01/25 02:11:43;;;;;;;0.60;0.60;;;0.90;99.90;;;;;;5032269;28;20727;-71
2024/01/25 02:14:11;;;;;;;0.60;0.60;;;0.90;99.90;;;;;;5032249;28;20202;-73
2024/01/25 02:16:37;;;;;;;1.00;1.00;;;0.90;99.90;;;;;;5032033;28;20210;-74
2024/01/25 02:19:03;;;;;;;0.70;0.70;;;0.90;99.90;;;;;;5032500;28;20193;-74
2024/01/25 02:21:28;;;;;;;0.60;0.60;;;0.90;99.90;;;;;;5031725;28;20198;-73
2024/01/25 02:23:54;;;;;;;0.60;0.60;;;0.90;99.90;;;;;;5032270;28;20194;-73
2024/01/25 02:26:20;;;;;;;0.70;0.70;;;0.90;99.90;;;;;;5031713;28;20206;-73
2024/01/25 02:28:45;;;;;;;0.60;0.60;;;0.90;99.90;;;;;;5032177;28;20197;-73
2024/01/25 02:31:11;;;;;;;0.60;0.60;;;0.90;99.90;;;;;;5015507;28;20202;-74
2024/01/25 02:33:37;;;;;;;0.60;0.60;;;0.90;99.90;;;;;;5032094;28;20289;-74
2024/01/25 02:36:02;;;;;;;0.50;0.50;;;0.90;99.90;;;;;;5031998;28;20214;-74
2024/01/25 02:38:28;;;;;;;0.60;0.60;;;0.90;99.90;;;;;;5031937;28;20607;-74
2024/01/25 02:40:54;;;;;;;0.60;0.60;;;0.90;99.90;;;;;;5032017;28;20182;-75
2024/01/25 02:43:20;;;;;;;0.60;0.60;;;0.90;99.90;;;;;;5031800;28;20278;-75
2024/01/25 02:45:45;;;;;;;0.60;0.60;;;0.90;99.90;;;;;;5032050;28;20202;-75
2024/01/25 02:48:11;;;;;;;0.63;0.63;;;0.90;99.90;;;;;;5031604;28;20249;-74
2024/01/25 02:50:37;;;;;;;0.60;0.60;;;0.90;99.90;;;;;;5031567;28;20205;-75
2024/01/25 02:53:02;;;;;;;0.60;0.60;;;0.90;99.90;;;;;;5031791;28;20281;-74
2024/01/25 02:55:28;;;;;;;0.50;0.50;;;0.80;99.90;;;;;;5031562;28;20230;-74
2024/01/25 02:57:54;;;;;;;0.60;0.60;;;0.80;99.90;;;;;;5031742;28;20201;-75
2024/01/25 03:00:19;;;;;;;0.60;0.60;;;0.80;99.90;;;;;;5031174;28;20197;-74
2024/01/25 03:02:45;;;;;;;0.70;0.70;;;0.70;99.90;;;;;;5031679;28;20244;-74
2024/01/25 03:05:11;;;;;;;0.60;0.60;;;0.70;99.90;;;;;;5031526;28;20198;-74
2024/01/25 03:07:37;;;;;;;0.70;0.70;;;0.70;99.90;;;;;;5031233;28;20230;-74
2024/01/25 03:10:03;;;;;;;0.60;0.60;;;0.60;99.90;;;;;;5031516;28;20190;-74
2024/01/25 03:12:28;;;;;;;0.80;0.80;;;0.50;99.90;;;;;;5013403;28;20205;-73
2024/01/25 03:14:54;;;;;;;0.80;0.80;;;0.50;99.90;;;;;;5031614;28;20214;-74
2024/01/25 03:17:19;;;;;;;0.60;0.60;;;0.60;99.90;;;;;;5031177;28;20617;-74
2024/01/25 03:19:45;;;;;;;0.70;0.70;;;0.50;99.90;;;;;;5031321;28;20201;-74
2024/01/25 03:22:11;;;;;;;0.63;0.63;;;0.50;99.90;;;;;;5031197;28;20190;-74
2024/01/25 03:24:40;;;;;;;0.65;0.65;;;0.40;99.90;;;;;;5031342;28;20232;-74
2024/01/25 03:27:05;;;;;;;0.98;0.95;;;0.30;99.90;;;;;;5031203;28;20554;-74
2024/01/25 03:29:31;;;;;;;0.70;0.70;;;0.30;99.90;;;;;;5030925;28;20183;-74
2024/01/25 03:31:57;;;;;;;0.70;0.70;;;0.20;99.90;;;;;;5031177;28;20702;-75
2024/01/25 03:34:23;;;;;;;0.70;0.70;;;0.20;99.90;;;;;;5030781;28;20186;-75
2024/01/25 03:36:50;;;;;;;0.50;0.50;;;0.30;99.90;;;;;;5031006;28;20243;-75
2024/01/25 03:39:17;;;;;;;0.70;0.70;;;0.30;99.90;;;;;;5030982;28;20663;-75
2024/01/25 03:41:42;;;;;;;0.70;0.70;;;0.30;99.90;;;;;;5030883;28;20265;-73
2024/01/25 03:44:08;;;;;;;0.60;0.60;;;0.30;99.90;;;;;;5013058;28;20340;-74
2024/01/25 03:46:33;;;;;;;0.60;0.60;;;0.30;99.90;;;;;;5030597;28;20675;-74
2024/01/25 03:48:59;;;;;;;0.70;0.70;;;0.30;99.90;;;;;;5030972;28;20328;-73
2024/01/25 03:51:26;;;;;;;0.60;0.60;;;0.30;99.90;;;;;;5030146;28;20259;-74
2024/01/25 03:53:52;;;;;;;0.70;0.70;;;0.40;99.90;;;;;;5030841;28;20248;-74
2024/01/25 03:56:18;;;;;;;0.63;0.63;;;0.40;99.90;;;;;;5030537;28;20202;-74
2024/01/25 03:58:45;;;;;;;0.60;0.60;;;0.40;99.90;;;;;;5030842;28;20194;-75
2024/01/25 04:01:10;;;;;;;0.70;0.70;;;0.40;99.90;;;;;;5021640;28;20191;-73
2024/01/25 04:03:36;;;;;;;0.68;0.68;;;0.40;99.90;;;;;;5030338;28;20264;-75
2024/01/25 04:06:02;;;;;;;0.70;0.70;;;0.40;99.90;;;;;;5030593;28;20240;-75
2024/01/25 04:08:27;;;;;;;0.60;0.60;;;0.50;99.90;;;;;;5030451;28;20678;-74
2024/01/25 04:10:53;;;;;;;0.50;0.50;;;0.50;99.90;;;;;;5030654;28;20204;-75
2024/01/25 04:13:19;;;;;;;0.80;0.80;;;0.50;99.90;;;;;;5030430;28;20584;-74
2024/01/25 04:15:44;;;;;;;0.73;0.73;;;0.60;99.90;;;;;;5030533;28;20576;-74
2024/01/25 04:18:10;;;;;;;0.70;0.70;;;0.60;99.90;;;;;;5030675;28;20193;-74
2024/01/25 04:20:36;;;;;;;0.60;0.60;;;0.70;99.90;;;;;;5030347;28;20194;-74
2024/01/25 04:23:02;;;;;;;0.70;0.70;;;0.60;99.90;;;;;;5030548;28;20190;-75
2024/01/25 04:25:27;;;;;;;0.70;0.70;;;0.60;99.90;;;;;;5030860;28;20194;-74
2024/01/25 04:27:53;;;;;;;0.65;0.65;;;0.60;99.90;;;;;;5030506;28;20199;-74
2024/01/25 04:30:19;;;;;;;0.65;0.65;;;0.50;99.90;;;;;;5030262;28;20248;-74
2024/01/25 04:32:44;;;;;;;0.70;0.70;;;0.50;99.90;;;;;;5030501;28;20280;-74
2024/01/25 04:35:10;;;;;;;0.73;0.73;;;0.40;99.90;;;;;;5030436;28;20202;-69
2024/01/25 04:37:36;;;;;;;0.60;0.60;;;0.40;99.90;;;;;;5012549;28;20202;-69
2024/01/25 04:40:02;;;;;;;0.70;0.70;;;0.30;99.90;;;;;;5030366;28;20179;-69
2024/01/25 04:42:28;;;;;;;0.63;0.63;;;0.30;99.90;;;;;;5012378;28;20225;-69
2024/01/25 04:44:54;;;;;;;0.70;0.70;;;0.20;99.90;;;;;;5030405;28;20546;-69
2024/01/25 04:47:19;;;;;;;0.70;0.70;;;0.20;99.90;;;;;;5030058;28;20190;-69
2024/01/25 04:49:45;;;;;;;0.70;0.70;;;0.10;99.90;;;;;;5030330;28;20218;-68
2024/01/25 04:52:11;;;;;;;0.70;0.70;;;0.20;99.90;;;;;;5030318;28;20190;-69
2024/01/25 04:54:36;;;;;;;0.70;0.70;;;0.10;99.90;;;;;;5030128;28;20283;-68
2024/01/25 04:57:06;;;;;;;0.70;0.70;;;0.10;99.90;;;;;;5030224;28;20642;-69
2024/01/25 04:59:34;;;;;;;0.70;0.70;;;0.00;99.90;;;;;;5012374;28;20222;-68
2024/01/25 05:02:00;;;;;;;0.70;0.70;;;-0.10;99.90;;;;;;5030027;28;20581;-68
2024/01/25 05:04:26;;;;;;;0.60;0.60;;;0.00;99.90;;;;;;5032739;28;20191;-69
2024/01/25 05:06:51;;;;;;;0.70;0.70;;;-0.10;99.90;;;;;;5033828;28;20261;-69
2024/01/25 05:09:17;;;;;;;0.70;0.70;;;-0.10;99.90;;;;;;5033863;28;20662;-69
2024/01/25 05:11:43;;;;;;;0.60;0.60;;;-0.20;99.90;;;;;;5016157;28;20238;-69
2024/01/25 05:14:09;;;;;;;0.50;0.50;;;-0.10;99.90;;;;;;5015974;28;20687;-69
2024/01/25 05:16:37;;;;;;;0.70;0.70;;;-0.10;99.90;;;;;;5033426;28;20693;-69
2024/01/25 05:19:03;;;;;;;0.52;0.52;;;-0.10;99.90;;;;;;5033693;28;20277;-69
2024/01/25 05:21:28;;;;;;;0.70;0.70;;;-0.10;99.90;;;;;;5015755;28;20286;-69
2024/01/25 05:23:54;;;;;;;0.70;0.70;;;0.10;99.90;;;;;;5033670;28;20281;-68
2024/01/25 05:26:20;;;;;;;0.65;0.65;;;0.20;99.90;;;;;;5033646;28;20289;-68
2024/01/25 05:28:45;;;;;;;0.60;0.60;;;0.20;99.90;;;;;;5033708;28;20560;-68
2024/01/25 05:31:14;;;;;;;0.80;0.80;;;0.30;99.90;;;;;;5015756;28;20251;-69
2024/01/25 05:33:40;;;;;;;0.77;0.77;;;0.40;99.90;;;;;;5033784;28;20190;-68
2024/01/25 05:36:06;;;;;;;0.63;0.63;;;0.40;99.90;;;;;;5032993;28;20252;-68
2024/01/25 05:38:32;;;;;;;0.70;0.70;;;0.50;99.90;;;;;;5015866;28;20658;-68
2024/01/25 05:40:58;;;;;;;0.60;0.60;;;0.50;99.90;;;;;;5033542;28;20245;-69
2024/01/25 05:43:24;;;;;;;0.70;0.70;;;0.40;99.90;;;;;;5033144;28;20590;-74
2024/01/25 05:45:50;;;;;;;0.70;0.70;;;0.30;99.90;;;;;;5032875;28;20205;-75
2024/01/25 05:48:16;;;;;;;0.70;0.70;;;0.30;99.90;;;;;;5033200;28;20335;-73
2024/01/25 05:50:41;;;;;;;0.70;0.70;;;0.20;99.90;;;;;;5033033;28;20267;-73
2024/01/25 05:53:07;;;;;;;0.70;0.70;;;0.00;99.90;;;;;;5033051;28;20213;-74
2024/01/25 05:55:33;;;;;;;0.65;0.65;;;-0.10;99.90;;;;;;5032925;28;20277;-68
2024/01/25 05:57:58;;;;;;;0.50;0.50;;;-0.10;99.90;;;;;;5032993;28;20204;-68
2024/01/25 06:00:24;;;;;;;0.80;0.80;;;-0.20;99.90;;;;;;5032458;28;20269;-67
2024/01/25 06:02:50;;;;;;;0.60;0.60;;;-0.20;99.90;;;;;;5032872;28;20191;-68
2024/01/25 06:05:15;;;;;;;0.52;0.52;;;-0.30;99.90;;;;;;5032765;28;20225;-68
2024/01/25 06:07:41;;;;;;;0.65;0.65;;;-0.30;99.90;;;;;;5032472;28;20262;-68
2024/01/25 06:10:09;;;;;;;0.73;0.73;;;-0.20;99.90;;;;;;5032637;28;20242;-67
2024/01/25 06:12:34;;;;;;;0.70;0.70;;;-0.30;99.90;;;;;;5032405;28;20644;-68
2024/01/25 06:15:00;;;;;;;0.55;0.55;;;-0.30;99.90;;;;;;5032365;28;20198;-68
2024/01/25 06:17:26;;;;;;;0.70;0.70;;;-0.30;99.90;;;;;;5032431;28;20264;-67
2024/01/25 06:19:52;;;;;;;0.65;0.65;;;-0.30;99.90;;;;;;5032591;28;20194;-68
2024/01/25 06:22:18;;;;;;;0.60;0.60;;;-0.40;99.90;;;;;;5032397;28;20595;-68
2024/01/25 06:24:43;;;;;;;0.70;0.70;;;-0.20;99.90;;;;;;5032645;28;20248;-69
2024/01/25 06:27:12;;;;;;;0.60;0.60;;;-0.20;99.90;;;;;;5032778;28;20674;-68
2024/01/25 06:29:37;;;;;;;0.57;0.57;;;-0.10;99.90;;;;;;5032070;28;20198;-68
2024/01/25 06:32:03;;;;;;;0.80;0.80;;;-0.10;99.90;;;;;;5031997;28;20202;-68
2024/01/25 06:34:29;;;;;;;0.63;0.63;;;0.00;99.90;;;;;;5014118;28;20186;-67
2024/01/25 06:36:55;;;;;;;0.73;0.73;;;0.00;99.90;;;;;;5032165;28;20206;-68
2024/01/25 06:39:20;;;;;;;0.98;0.98;;;0.00;99.90;;;;;;5031953;28;20197;-68
2024/01/25 06:41:46;;;;;;;0.70;0.70;;;0.00;99.90;;;;;;5014449;28;20612;-69
2024/01/25 06:44:12;;;;;;;0.60;0.60;;;-0.10;99.90;;;;;;5032039;28;20258;-69
2024/01/25 06:46:41;;;;;;;0.70;0.70;;;-0.10;99.90;;;;;;5031921;28;20190;-68
2024/01/25 06:49:07;;;;;;;0.80;0.80;;;0.00;99.90;;;;;;5032039;28;20281;-68
2024/01/25 06:51:32;;;;;;;0.70;0.70;;;-0.10;99.90;;;;;;5031747;28;20349;-68
2024/01/25 06:53:58;;;;;;;0.60;0.60;;;0.00;99.90;;;;;;5032099;28;20206;-71
2024/01/25 06:56:24;;;;;;;1.17;1.13;;;0.10;99.90;;;;;;5031589;28;20320;-71
2024/01/25 06:58:49;;;;;;;0.65;0.65;;;0.20;99.90;;;;;;5031910;28;20553;-71
2024/01/25 07:01:21;;;;;;;0.80;0.80;;;0.20;99.90;;;;;;5031512;28;20190;-71
2024/01/25 07:03:47;;;;;;;0.80;0.80;;;0.30;99.90;;;;;;5031793;28;20193;-71
2024/01/25 07:06:13;;;;;;;0.70;0.70;;;0.40;99.90;;;;;;5031579;28;20587;-70
2024/01/25 07:08:38;;;;;;;0.60;0.60;;;0.50;99.90;;;;;;5031769;28;20234;-71
2024/01/25 07:11:04;;;;;;;0.75;0.75;;;0.50;99.90;;;;;;5031595;28;20280;-71
2024/01/25 07:13:30;;;;;;;0.60;0.60;;;0.50;99.90;;;;;;5031347;28;20519;-71
2024/01/25 07:15:55;;;;;;;0.57;0.57;;;0.50;99.90;;;;;;5031468;28;20264;-71
2024/01/25 07:18:22;;;;;;;0.68;0.68;;;0.60;99.90;;;;;;5031287;28;20985;-70
2024/01/25 07:20:48;;;;;;;0.50;0.50;;;0.70;99.90;;;;;;5031357;28;20686;-70
2024/01/25 07:23:14;;;;;;;0.63;0.63;;;0.70;99.90;;;;;;5031638;28;20201;-71
2024/01/25 07:25:39;;;;;;;0.68;0.68;;;0.70;99.90;;;;;;5031081;28;20198;-71
2024/01/25 07:28:05;;;;;;;0.60;0.60;;;0.70;99.90;;;;;;5030905;28;20202;-71
2024/01/25 07:30:31;;;;;;;0.60;0.60;;;0.70;99.90;;;;;;5030999;28;20741;-71
2024/01/25 07:32:57;;;;;;;0.60;0.60;;;0.70;99.90;;;;;;5031267;28;20198;-72
2024/01/25 07:35:23;;;;;;;1.08;1.00;;;0.70;99.90;;;;;;5030898;28;20234;-72
2024/01/25 07:37:49;;;;;;;0.80;0.80;;;0.70;99.90;;;;;;5031190;28;20187;-72
2024/01/25 07:40:14;;;;;;;0.80;0.80;;;0.70;99.90;;;;;;5031097;28;20231;-72
2024/01/25 07:42:40;;;;;;;1.48;1.38;;;0.60;99.90;;;;;;5030943;28;20597;-72
2024/01/25 07:45:07;;;;;;;0.75;0.75;;;0.60;99.90;;;;;;5031014;28;20228;-71
2024/01/25 07:47:33;;;;;;;0.60;0.60;;;0.50;99.90;;;;;;5031200;28;20265;-71
2024/01/25 07:49:59;;;;;;;0.80;0.80;;;0.40;99.90;;;;;;5030969;28;20658;-71
2024/01/25 07:52:24;;;;;;;1.55;1.45;;;0.40;99.90;;;;;;5031044;28;20193;-72
2024/01/25 07:54:53;;;;;;;0.60;0.60;;;0.40;99.90;;;;;;5030906;28;20248;-71
2024/01/25 07:57:19;;;;;;;0.70;0.70;;;0.40;99.90;;;;;;5030849;28;20190;-71
2024/01/25 07:59:44;;;;;;;0.70;0.70;;;0.40;99.90;;;;;;5030897;28;20194;-71
2024/01/25 08:02:10;;;;;;;0.70;0.70;;;0.40;99.90;;;;;;5030521;28;20557;-71
2024/01/25 08:04:36;;;;;;;0.65;0.65;;;0.40;99.90;;;;;;5030945;28;20201;-68
2024/01/25 08:07:02;;;;;;;0.68;0.68;;;0.40;99.90;;;;;;5031016;28;20693;-69
2024/01/25 08:09:27;;;;;;;0.68;0.68;;;0.50;99.90;;;;;;5030658;28;20198;-69
2024/01/25 08:11:53;;;;;;;0.60;0.60;;;0.60;99.90;;;;;;5031072;28;20615;-68
2024/01/25 08:14:19;;;;;;;0.60;0.60;;;0.70;99.90;;;;;;5012827;28;20197;-68
2024/01/25 08:16:44;;;;;;;0.68;0.68;;;0.70;99.90;;;;;;5030738;28;20202;-68
2024/01/25 08:19:10;;;;;;;0.68;0.68;;;0.80;99.90;;;;;;5030699;28;20723;-68
2024/01/25 08:21:36;;;;;;;0.50;0.50;;;0.80;99.90;;;;;;5030577;28;20557;-69
2024/01/25 08:24:03;;;;;;;0.65;0.65;;;0.90;99.90;;;;;;5030340;28;20190;-68
2024/01/25 08:26:28;;;;;;;0.60;0.60;;;0.90;99.90;;;;;;5030369;28;20194;-69
2024/01/25 08:28:54;;;;;;;0.60;0.60;;;0.90;99.90;;;;;;5030721;28;20605;-67
2024/01/25 08:31:20;;;;;;;0.70;0.70;;;1.00;99.90;;;;;;5030362;28;20247;-68
2024/01/25 08:33:47;;;;;;;0.88;0.82;;;1.00;99.90;;;;;;5030652;28;20272;-68
2024/01/25 08:36:16;;;;;;;0.80;0.80;;;1.00;99.90;;;;;;5030545;28;20264;-68
2024/01/25 08:38:42;;;;;;;0.70;0.70;;;1.00;99.90;;;;;;5015869;28;20194;-68
2024/01/25 08:41:08;;;;;;;0.50;0.50;;;1.00;99.90;;;;;;5034501;28;20206;-69
2024/01/25 08:43:34;;;;;;;0.70;0.70;;;1.00;99.90;;;;;;5034302;28;20182;-69
2024/01/25 08:46:01;;;;;;;0.70;0.70;;;1.00;99.90;;;;;;5016949;28;20194;-69
2024/01/25 08:48:27;;;;;;;0.70;0.70;;;1.00;99.90;;;;;;5034480;28;20191;-68
2024/01/25 08:50:54;;;;;;;0.65;0.65;;;1.00;99.90;;;;;;5034335;28;20252;-68
2024/01/25 08:53:26;;;;;;;0.60;0.60;;;1.00;99.90;;;;;;5034016;28;20193;-69
2024/01/25 08:55:55;;;;;;;0.45;0.45;;;1.00;99.90;;;;;;5034178;28;20205;-68
2024/01/25 08:58:21;;;;;;;0.63;0.63;;;1.10;99.90;;;;;;5033782;28;20198;-68
2024/01/25 09:00:47;;;;;;;0.70;0.70;;;1.10;99.90;;;;;;5033796;28;20203;-68
2024/01/25 09:03:14;;;;;;;0.60;0.60;;;1.20;99.90;;;;;;5034069;28;20305;-68
2024/01/25 09:05:44;;;;;;;0.70;0.70;;;1.20;99.90;;;;;;5033870;28;20249;-69
2024/01/25 09:08:14;;;;;;;0.70;0.70;;;1.20;99.90;;;;;;5033915;28;20227;-69
2024/01/25 09:10:41;;;;;;;0.70;0.70;;;1.20;99.90;;;;;;5033761;28;20206;-69
2024/01/25 09:13:08;;;;;;;0.73;0.73;;;1.20;99.90;;;;;;5033980;28;20244;-72
2024/01/25 09:15:34;;;;;;;0.60;0.60;;;1.20;99.90;;;;;;5033529;28;20609;-71
2024/01/25 09:17:59;;;;;;;0.80;0.80;;;1.10;99.90;;;;;;5033863;28;20194;-71
2024/01/25 09:20:25;;;;;;;0.70;0.70;;;1.10;99.90;;;;;;5033179;28;20682;-72
2024/01/25 09:22:53;;;;;;;0.70;0.70;;;1.00;99.90;;;;;;5033548;28;20221;-71
2024/01/25 09:25:19;;;;;;;0.70;0.70;;;1.00;99.90;;;;;;5033704;28;20190;-72
2024/01/25 09:27:45;;;;;;;0.70;0.70;;;1.00;99.90;;;;;;5033617;28;20194;-72
2024/01/25 09:30:11;;;;;;;0.70;0.70;;;1.10;99.90;;;;;;5033462;28;20601;-71
2024/01/25 09:32:37;;;;;;;0.70;0.70;;;1.10;99.90;;;;;;5015481;28;20294;-72
2024/01/25 09:35:02;;;;;;;0.60;0.60;;;1.10;99.90;;;;;;5033396;28;20264;-72
2024/01/25 09:37:28;;;;;;;0.75;0.75;;;1.20;99.90;;;;;;5033499;28;20538;-73
2024/01/25 09:39:54;;;;;;;0.70;0.70;;;1.20;99.90;;;;;;5033556;28;20601;-73
2024/01/25 09:42:19;;;;;;;0.68;0.68;;;1.20;99.90;;;;;;5015538;28;20214;-72
2024/01/25 09:44:45;;;;;;;2.45;1.73;;;1.30;99.90;;;;;;5033396;28;20214;-72
2024/01/25 09:47:11;;;;;;;0.65;0.65;;;1.40;99.90;;;;;;5033413;28;20194;-72
2024/01/25 09:49:37;;;;;;;0.60;0.60;;;1.40;99.90;;;;;;5032424;28;20749;-72
2024/01/25 09:52:04;;;;;;;0.60;0.60;;;1.40;99.90;;;;;;5033296;28;20212;-71
2024/01/25 09:54:34;;;;;;;0.70;0.70;;;1.30;99.90;;;;;;5032938;28;20281;-71
2024/01/25 09:57:03;;;;;;;0.60;0.60;;;1.30;99.90;;;;;;5033105;28;20784;-71
2024/01/25 09:59:29;;;;;;;1.30;1.20;;;1.30;99.90;;;;;;5032782;28;20202;-71
2024/01/25 10:01:56;;;;;;;0.75;0.75;;;1.30;99.90;;;;;;5032804;28;20187;-71
2024/01/25 10:04:23;;;;;;;0.80;0.80;;;1.30;99.90;;;;;;5032616;28;20190;-71
2024/01/25 10:06:49;;;;;;;0.50;0.50;;;1.40;99.90;;;;;;5032722;28;20686;-70
2024/01/25 10:09:14;;;;;;;0.70;0.70;;;1.40;99.90;;;;;;5033039;28;20190;-71
2024/01/25 10:11:40;;;;;;;2.05;1.77;;;1.50;99.90;;;;;;5032584;28;20265;-72
2024/01/25 10:14:08;;;;;;;0.60;0.60;;;1.60;99.90;;;;;;5032816;28;20227;-70
2024/01/25 10:16:34;;;;;;;0.70;0.70;;;1.70;99.90;;;;;;5031120;28;20216;-71
2024/01/25 10:19:02;;;;;;;0.50;0.50;;;1.80;99.90;;;;;;5031658;28;20670;-71
2024/01/25 10:21:29;;;;;;;0.50;0.50;;;2.10;99.90;;;;;;5032408;28;20708;-72
2024/01/25 10:23:57;;;;;;;0.70;0.70;;;2.10;99.90;;;;;;5032715;28;20224;-70
2024/01/25 10:26:28;;;;;;;0.70;0.70;;;2.10;99.90;;;;;;5032254;28;20519;-70
2024/01/25 10:28:54;;;;;;;0.60;0.60;;;2.00;99.90;;;;;;5032563;28;20218;-70
2024/01/25 10:31:24;;;;;;;0.63;0.63;;;1.90;99.90;;;;;;5032239;28;20269;-69
2024/01/25 10:33:51;;;;;;;0.70;0.70;;;1.90;99.90;;;;;;5032719;28;20611;-68
2024/01/25 10:36:17;;;;;;;0.50;0.50;;;1.90;99.90;;;;;;5032512;28;20248;-69
2024/01/25 10:38:47;;;;;;;0.63;0.63;;;1.80;99.90;;;;;;5032320;28;20216;-69
2024/01/25 10:41:14;;;;;;;0.57;0.57;;;1.90;99.90;;;;;;5032378;28;20198;-69
2024/01/25 10:43:40;;;;;;;0.60;0.60;;;2.00;99.90;;;;;;5032150;28;20194;-68
2024/01/25 10:46:07;;;;;;;0.60;0.60;;;2.10;99.90;;;;;;5032374;28;20265;-69
2024/01/25 10:48:33;;;;;;;0.50;0.50;;;2.30;99.90;;;;;;5031842;28;20542;-69
2024/01/25 10:51:02;;;;;;;0.57;0.57;;;2.30;99.90;;;;;;5031998;28;20213;-69
2024/01/25 10:53:31;;;;;;;0.50;0.50;;;2.20;99.90;;;;;;5014113;28;20202;-69
2024/01/25 10:55:57;;;;;;;0.80;0.80;;;2.10;99.90;;;;;;5034308;28;20221;-70
2024/01/25 10:58:23;;;;;;;0.60;0.60;;;2.00;99.90;;;;;;5031625;28;20198;-70
2024/01/25 11:01:02;;;;;;;0.70;0.70;;;1.90;99.90;;;;;;5030618;28;20202;-69
2024/01/25 11:03:28;;;;;;;0.60;0.60;;;1.90;99.90;;;;;;5032254;28;20404;-68
2024/01/25 11:06:11;;;;;;;0.60;0.60;;;1.80;99.90;;;;;;5031633;28;20256;-68
2024/01/25 11:08:38;;;;;;;0.68;0.68;;;1.90;99.90;;;;;;5031446;28;20208;-68
2024/01/25 11:11:09;;;;;;;0.50;0.50;;;2.00;99.90;;;;;;5031648;28;20190;-68
2024/01/25 11:13:35;;;;;;;0.70;0.70;;;2.10;99.90;;;;;;5031127;28;20402;-69
2024/01/25 11:16:17;;;;;;;0.70;0.70;;;2.10;99.90;;;;;;5031519;28;20690;-68
2024/01/25 11:18:50;;;;;;;0.63;0.63;;;2.20;99.90;;;;;;5031479;28;20248;-69
2024/01/25 11:21:43;;;;;;;0.68;0.68;;;2.20;99.90;;;;;;5031328;28;20276;-68
2024/01/25 11:24:37;;;;;;;0.50;0.50;;;2.10;99.90;;;;;;5013609;28;20206;-68
2024/01/25 11:27:04;;;;;;;0.55;0.55;;;1.90;99.90;;;;;;5031470;28;20201;-68
2024/01/25 11:29:30;;;;;;;0.60;0.60;;;1.80;99.90;;;;;;5031462;28;20652;-69
2024/01/25 11:31:56;;;;;;;0.50;0.50;;;1.70;99.90;;;;;;5031304;28;20227;-68
2024/01/25 11:34:23;;;;;;;0.60;0.60;;;1.60;99.90;;;;;;5031668;28;20225;-74
2024/01/25 11:36:49;;;;;;;0.60;0.60;;;1.50;99.90;;;;;;5031070;28;20666;-75
2024/01/25 11:39:16;;;;;;;0.55;0.55;;;1.50;99.90;;;;;;5031122;28;20246;-74
2024/01/25 11:41:45;;;;;;;0.77;0.77;;;1.50;99.90;;;;;;5013258;28;20281;-74
2024/01/25 11:44:14;;;;;;;0.60;0.60;;;1.60;99.90;;;;;;5031106;28;20691;-74
2024/01/25 11:46:39;;;;;;;0.63;0.63;;;1.70;99.90;;;;;;5030915;28;20696;-74
2024/01/25 11:49:07;;;;;;;0.50;0.50;;;1.90;99.90;;;;;;5031002;28;20194;-74
2024/01/25 11:51:32;;;;;;;0.60;0.60;;;1.90;99.90;;;;;;5013083;28;20560;-74
2024/01/25 11:53:58;;;;;;;0.70;0.70;;;1.80;99.90;;;;;;5030988;28;20204;-74
2024/01/25 11:56:31;;;;;;;2.25;2.05;;;1.90;99.90;;;;;;5013119;28;20682;-75
2024/01/25 11:58:57;;;;;;;0.70;0.70;;;1.80;99.90;;;;;;5030950;28;20186;-74
2024/01/25 12:01:25;;;;;;;0.70;0.70;;;1.90;99.90;;;;;;5030441;28;20213;-75
2024/01/25 12:03:51;;;;;;;0.70;0.70;;;1.80;99.90;;;;;;5030915;28;20190;-74
2024/01/25 12:06:18;;;;;;;0.50;0.50;;;1.80;99.90;;;;;;5030661;28;20679;-74
2024/01/25 12:08:46;;;;;;;0.68;0.68;;;1.70;99.90;;;;;;5030451;28;20733;-75
2024/01/25 12:11:12;;;;;;;0.57;0.57;;;1.70;99.90;;;;;;5030583;28;20277;-74
2024/01/25 12:13:42;;;;;;;0.70;0.70;;;1.70;99.90;;;;;;5033997;28;20778;-74
2024/01/25 12:16:09;;;;;;;0.50;0.50;;;1.70;99.90;;;;;;5034852;28;20283;-74
2024/01/25 12:18:35;;;;;;;0.60;0.60;;;1.80;99.90;;;;;;5016931;28;20197;-75
2024/01/25 12:21:02;;;;;;;0.57;0.57;;;1.80;99.90;;;;;;5016959;28;20182;-74
2024/01/25 12:23:39;;;;;;;0.70;0.70;;;1.80;99.90;;;;;;5034554;28;20602;-75
2024/01/25 12:26:06;;;;;;;0.65;0.65;;;2.00;99.90;;;;;;5035342;28;20653;-74
2024/01/25 12:28:32;;;;;;;0.80;0.80;;;2.00;99.90;;;;;;5034519;28;20198;-75
2024/01/25 12:31:03;;;;;;;0.60;0.60;;;1.90;99.90;;;;;;5034682;28;20616;-75
2024/01/25 12:33:29;;;;;;;0.60;0.60;;;2.00;99.90;;;;;;5034547;28;20198;-73
2024/01/25 12:35:55;;;;;;;0.60;0.60;;;2.00;99.90;;;;;;5034542;28;20213;-74
2024/01/25 12:38:25;;;;;;;0.50;0.50;;;1.90;99.90;;;;;;5034289;28;20564;-75
2024/01/25 12:40:51;;;;;;;0.63;0.63;;;1.90;99.90;;;;;;5034548;28;20272;-75
2024/01/25 12:43:18;;;;;;;0.70;0.70;;;1.90;99.90;;;;;;5034435;28;20197;-69
2024/01/25 12:45:44;;;;;;;0.57;0.57;;;1.90;99.90;;;;;;5034358;28;20237;-68
2024/01/25 12:48:10;;;;;;;0.68;0.68;;;1.90;99.90;;;;;;5034417;28;20678;-68
2024/01/25 12:50:36;;;;;;;0.68;0.68;;;1.90;99.90;;;;;;5034390;28;20796;-69
2024/01/25 12:53:03;;;;;;;0.63;0.63;;;1.80;99.90;;;;;;5034265;28;20277;-69
2024/01/25 12:55:29;;;;;;;0.70;0.70;;;1.70;99.90;;;;;;5033907;28;20284;-69